sensor_id;sensor_type;location;lat;lon;timestamp;pressure;altitude;pressure_sealevel;temperature;humidity
15489;BME280;7846;48.830;9.116;2022-09-24T00:02:01;97587.06;;;19.41;55.70
15489;BME280;7846;48.830;9.116;2022-09-24T00:04:26;97577.66;;;19.81;54.92
15489;BME280;7846;48.830;9.116;2022-09-24T00:06:52;97576.22;;;19.97;54.35
15489;BME280;7846;48.830;9.116;2022-09-24T00:09:20;97567.91;;;20.05;54.50
15489;BME280;7846;48.830;9.116;2022-09-24T00:11:47;97572.13;;;20.13;54.12
15489;BME280;7846;48.830;9.116;2022-09-24T00:14:15;97567.16;;;20.17;54.11
15489;BME280;7846;48.830;9.116;2022-09-24T00:16:42;97567.84;;;20.12;54.30
15489;BME280;7846;48.830;9.116;2022-09-24T00:19:08;97569.50;;;19.76;55.22
15489;BME280;7846;48.830;9.116;2022-09-24T00:21:35;97569.78;;;19.87;55.26
15489;BME280;7846;48.830;9.116;2022-09-24T00:24:06;97564.72;;;20.15;54.35
15489;BME280;7846;48.830;9.116;2022-09-24T00:26:32;97554.47;;;20.12;54.12
15489;BME280;7846;48.830;9.116;2022-09-24T00:29:20;97549.47;;;20.34;54.04
15489;BME280;7846;48.830;9.116;2022-09-24T00:31:47;97554.31;;;20.25;53.99
15489;BME280;7846;48.830;9.116;2022-09-24T00:34:13;97557.06;;;20.19;54.14
15489;BME280;7846;48.830;9.116;2022-09-24T00:36:39;97555.13;;;20.26;53.93
15489;BME280;7846;48.830;9.116;2022-09-24T00:39:05;97558.41;;;20.10;53.96
15489;BME280;7846;48.830;9.116;2022-09-24T00:41:34;97558.50;;;20.03;54.52
15489;BME280;7846;48.830;9.116;2022-09-24T00:44:00;97567.09;;;20.05;54.55
15489;BME280;7846;48.830;9.116;2022-09-24T00:46:39;97558.06;;;20.06;54.75
15489;BME280;7846;48.830;9.116;2022-09-24T00:49:12;97558.59;;;19.96;55.03
15489;BME280;7846;48.830;9.116;2022-09-24T00:51:43;97552.56;;;20.01;54.91
15489;BME280;7846;48.830;9.116;2022-09-24T00:54:17;97540.66;;;20.15;54.21
15489;BME280;7846;48.830;9.116;2022-09-24T00:56:46;97536.06;;;20.22;54.06
15489;BME280;7846;48.830;9.116;2022-09-24T00:59:14;97529.75;;;20.17;54.10
15489;BME280;7846;48.830;9.116;2022-09-24T01:01:43;97519.06;;;20.17;53.81
15489;BME280;7846;48.830;9.116;2022-09-24T01:04:12;97530.50;;;20.05;53.93
15489;BME280;7846;48.830;9.116;2022-09-24T01:06:38;97526.53;;;19.78;54.50
15489;BME280;7846;48.830;9.116;2022-09-24T01:09:07;97522.13;;;19.83;54.48
15489;BME280;7846;48.830;9.116;2022-09-24T01:14:57;97524.72;;;19.90;54.39
15489;BME280;7846;48.830;9.116;2022-09-24T01:17:57;97519.84;;;19.87;54.45
15489;BME280;7846;48.830;9.116;2022-09-24T01:21:08;97521.94;;;19.85;54.38
15489;BME280;7846;48.830;9.116;2022-09-24T01:32:05;97502.66;;;19.21;56.09
15489;BME280;7846;48.830;9.116;2022-09-24T01:34:43;97495.63;;;19.02;56.26
15489;BME280;7846;48.830;9.116;2022-09-24T01:37:13;97495.53;;;18.90;57.02
15489;BME280;7846;48.830;9.116;2022-09-24T01:39:40;97498.00;;;19.35;55.30
15489;BME280;7846;48.830;9.116;2022-09-24T01:42:11;97482.28;;;19.45;55.26
15489;BME280;7846;48.830;9.116;2022-09-24T01:44:38;97485.31;;;19.30;55.02
15489;BME280;7846;48.830;9.116;2022-09-24T01:47:09;97478.78;;;19.26;55.28
15489;BME280;7846;48.830;9.116;2022-09-24T01:49:40;97490.56;;;19.19;55.10
15489;BME280;7846;48.830;9.116;2022-09-24T01:52:08;97492.28;;;19.31;54.94
15489;BME280;7846;48.830;9.116;2022-09-24T01:54:40;97487.41;;;19.28;55.17
15489;BME280;7846;48.830;9.116;2022-09-24T01:59:54;97469.38;;;19.24;55.58
15489;BME280;7846;48.830;9.116;2022-09-24T02:02:32;97477.16;;;19.25;55.65
15489;BME280;7846;48.830;9.116;2022-09-24T02:05:05;97475.25;;;19.32;55.15
15489;BME280;7846;48.830;9.116;2022-09-24T02:07:39;97464.72;;;19.38;54.88
15489;BME280;7846;48.830;9.116;2022-09-24T02:10:14;97465.44;;;19.26;55.07
15489;BME280;7846;48.830;9.116;2022-09-24T02:12:43;97465.91;;;19.42;54.71
15489;BME280;7846;48.830;9.116;2022-09-24T02:15:15;97470.88;;;19.38;54.87
15489;BME280;7846;48.830;9.116;2022-09-24T02:17:45;97464.03;;;19.42;54.89
15489;BME280;7846;48.830;9.116;2022-09-24T02:20:15;97457.75;;;19.37;54.99
15489;BME280;7846;48.830;9.116;2022-09-24T02:22:44;97469.72;;;19.09;55.53
15489;BME280;7846;48.830;9.116;2022-09-24T02:25:18;97467.88;;;19.28;55.72
15489;BME280;7846;48.830;9.116;2022-09-24T02:27:44;97459.44;;;19.31;54.97
15489;BME280;7846;48.830;9.116;2022-09-24T02:30:10;97470.66;;;19.40;54.81
15489;BME280;7846;48.830;9.116;2022-09-24T02:32:38;97458.25;;;19.45;54.93
15489;BME280;7846;48.830;9.116;2022-09-24T02:35:07;97465.38;;;19.51;54.86
15489;BME280;7846;48.830;9.116;2022-09-24T02:37:35;97463.66;;;19.20;55.60
15489;BME280;7846;48.830;9.116;2022-09-24T02:40:04;97467.00;;;19.34;55.73
15489;BME280;7846;48.830;9.116;2022-09-24T02:42:31;97457.16;;;19.34;55.10
15489;BME280;7846;48.830;9.116;2022-09-24T02:44:56;97451.44;;;19.49;54.71
15489;BME280;7846;48.830;9.116;2022-09-24T02:47:25;97456.03;;;19.42;54.89
15489;BME280;7846;48.830;9.116;2022-09-24T02:49:50;97461.06;;;19.50;54.70
15489;BME280;7846;48.830;9.116;2022-09-24T02:52:15;97456.78;;;19.49;54.79
15489;BME280;7846;48.830;9.116;2022-09-24T02:54:41;97466.91;;;19.04;56.42
15489;BME280;7846;48.830;9.116;2022-09-24T02:57:07;97457.00;;;18.86;56.87
15489;BME280;7846;48.830;9.116;2022-09-24T02:59:33;97459.25;;;18.89;56.99
15489;BME280;7846;48.830;9.116;2022-09-24T03:02:00;97460.53;;;18.55;57.68
15489;BME280;7846;48.830;9.116;2022-09-24T03:04:25;97449.78;;;18.93;56.94
15489;BME280;7846;48.830;9.116;2022-09-24T03:06:52;97457.19;;;19.09;56.48
15489;BME280;7846;48.830;9.116;2022-09-24T03:09:18;97450.97;;;19.16;56.36
15489;BME280;7846;48.830;9.116;2022-09-24T03:11:44;97451.88;;;19.28;56.11
15489;BME280;7846;48.830;9.116;2022-09-24T03:14:10;97449.94;;;19.35;55.70
15489;BME280;7846;48.830;9.116;2022-09-24T03:16:35;97450.13;;;19.40;55.43
15489;BME280;7846;48.830;9.116;2022-09-24T03:19:01;97441.56;;;19.31;55.76
15489;BME280;7846;48.830;9.116;2022-09-24T03:21:26;97444.34;;;19.43;55.52
15489;BME280;7846;48.830;9.116;2022-09-24T03:23:55;97443.13;;;19.57;55.39
15489;BME280;7846;48.830;9.116;2022-09-24T03:26:20;97442.47;;;19.44;55.41
15489;BME280;7846;48.830;9.116;2022-09-24T03:28:46;97439.13;;;19.48;55.36
15489;BME280;7846;48.830;9.116;2022-09-24T03:31:12;97438.03;;;19.38;55.84
15489;BME280;7846;48.830;9.116;2022-09-24T03:33:45;97428.59;;;19.53;55.48
15489;BME280;7846;48.830;9.116;2022-09-24T03:36:16;97431.56;;;19.64;55.51
15489;BME280;7846;48.830;9.116;2022-09-24T03:38:43;97436.69;;;19.65;55.24
15489;BME280;7846;48.830;9.116;2022-09-24T03:41:11;97435.66;;;19.66;55.31
15489;BME280;7846;48.830;9.116;2022-09-24T03:43:37;97439.66;;;19.39;55.80
15489;BME280;7846;48.830;9.116;2022-09-24T03:46:04;97427.66;;;19.48;55.98
15489;BME280;7846;48.830;9.116;2022-09-24T03:48:35;97433.88;;;19.42;55.98
15489;BME280;7846;48.830;9.116;2022-09-24T03:51:08;97424.78;;;19.61;55.81
15489;BME280;7846;48.830;9.116;2022-09-24T03:53:34;97422.59;;;19.58;55.46
15489;BME280;7846;48.830;9.116;2022-09-24T03:56:00;97427.28;;;19.63;55.73
15489;BME280;7846;48.830;9.116;2022-09-24T03:58:27;97420.44;;;19.30;56.35
15489;BME280;7846;48.830;9.116;2022-09-24T04:00:53;97430.31;;;19.48;56.03
15489;BME280;7846;48.830;9.116;2022-09-24T04:03:22;97432.22;;;19.59;55.70
15489;BME280;7846;48.830;9.116;2022-09-24T04:05:48;97429.16;;;19.62;55.41
15489;BME280;7846;48.830;9.116;2022-09-24T04:08:16;97422.59;;;19.76;55.25
15489;BME280;7846;48.830;9.116;2022-09-24T04:10:44;97412.50;;;19.78;55.17
15489;BME280;7846;48.830;9.116;2022-09-24T04:13:10;97414.22;;;19.73;55.03
15489;BME280;7846;48.830;9.116;2022-09-24T04:15:36;97414.22;;;19.73;55.20
15489;BME280;7846;48.830;9.116;2022-09-24T04:18:01;97408.66;;;19.74;55.26
15489;BME280;7846;48.830;9.116;2022-09-24T04:20:28;97417.09;;;19.71;55.13
15489;BME280;7846;48.830;9.116;2022-09-24T04:22:56;97416.66;;;19.56;55.80
15489;BME280;7846;48.830;9.116;2022-09-24T04:25:23;97416.91;;;19.73;55.71
15489;BME280;7846;48.830;9.116;2022-09-24T04:27:53;97421.88;;;19.99;55.10
15489;BME280;7846;48.830;9.116;2022-09-24T04:30:19;97424.38;;;19.94;55.12
15489;BME280;7846;48.830;9.116;2022-09-24T04:32:45;97417.50;;;19.87;55.29
15489;BME280;7846;48.830;9.116;2022-09-24T04:35:11;97412.91;;;19.94;54.99
15489;BME280;7846;48.830;9.116;2022-09-24T04:37:37;97402.22;;;19.94;55.23
15489;BME280;7846;48.830;9.116;2022-09-24T04:40:05;97404.47;;;20.20;54.83
15489;BME280;7846;48.830;9.116;2022-09-24T04:42:46;97402.47;;;20.04;54.89
15489;BME280;7846;48.830;9.116;2022-09-24T04:45:14;97393.41;;;20.05;54.91
15489;BME280;7846;48.830;9.116;2022-09-24T04:47:42;97399.31;;;19.95;55.04
15489;BME280;7846;48.830;9.116;2022-09-24T04:50:08;97399.56;;;20.05;54.97
15489;BME280;7846;48.830;9.116;2022-09-24T04:52:38;97401.78;;;20.09;54.79
15489;BME280;7846;48.830;9.116;2022-09-24T04:55:04;97401.34;;;20.12;54.75
15489;BME280;7846;48.830;9.116;2022-09-24T04:57:29;97399.56;;;20.05;54.61
15489;BME280;7846;48.830;9.116;2022-09-24T05:00:02;97390.97;;;20.03;54.82
15489;BME280;7846;48.830;9.116;2022-09-24T05:02:28;97391.44;;;20.00;55.00
15489;BME280;7846;48.830;9.116;2022-09-24T05:04:53;97391.44;;;20.00;54.85
15489;BME280;7846;48.830;9.116;2022-09-24T05:07:20;97389.31;;;19.91;54.78
15489;BME280;7846;48.830;9.116;2022-09-24T05:09:48;97387.59;;;19.96;54.94
15489;BME280;7846;48.830;9.116;2022-09-24T05:12:14;97389.44;;;19.96;55.03
15489;BME280;7846;48.830;9.116;2022-09-24T05:14:40;97399.91;;;19.97;54.91
15489;BME280;7846;48.830;9.116;2022-09-24T05:17:06;97406.75;;;19.93;55.10
15489;BME280;7846;48.830;9.116;2022-09-24T05:19:31;97412.41;;;19.85;54.98
15489;BME280;7846;48.830;9.116;2022-09-24T05:21:57;97405.84;;;19.99;55.07
15489;BME280;7846;48.830;9.116;2022-09-24T05:24:23;97409.31;;;20.00;55.08
15489;BME280;7846;48.830;9.116;2022-09-24T05:26:48;97407.69;;;19.99;55.08
15489;BME280;7846;48.830;9.116;2022-09-24T05:29:32;97401.69;;;20.15;54.35
15489;BME280;7846;48.830;9.116;2022-09-24T05:31:57;97409.22;;;20.06;54.61
15489;BME280;7846;48.830;9.116;2022-09-24T05:34:24;97416.78;;;20.10;54.96
15489;BME280;7846;48.830;9.116;2022-09-24T05:36:49;97415.97;;;20.21;54.28
15489;BME280;7846;48.830;9.116;2022-09-24T05:39:15;97407.97;;;20.21;54.52
15489;BME280;7846;48.830;9.116;2022-09-24T05:41:41;97411.13;;;20.18;54.42
15489;BME280;7846;48.830;9.116;2022-09-24T05:44:08;97420.44;;;19.30;57.06
15489;BME280;7846;48.830;9.116;2022-09-24T05:46:35;97423.56;;;19.45;56.60
15489;BME280;7846;48.830;9.116;2022-09-24T05:49:01;97431.38;;;19.47;56.36
15489;BME280;7846;48.830;9.116;2022-09-24T05:51:26;97435.00;;;19.71;55.71
15489;BME280;7846;48.830;9.116;2022-09-24T05:53:53;97425.72;;;19.73;55.80
15489;BME280;7846;48.830;9.116;2022-09-24T05:56:18;97428.91;;;19.94;55.38
15489;BME280;7846;48.830;9.116;2022-09-24T05:58:46;97433.22;;;19.95;55.11
15489;BME280;7846;48.830;9.116;2022-09-24T06:01:12;97432.53;;;19.88;55.37
15489;BME280;7846;48.830;9.116;2022-09-24T06:03:38;97439.28;;;20.02;54.99
15489;BME280;7846;48.830;9.116;2022-09-24T06:06:04;97433.09;;;20.31;54.94
15489;BME280;7846;48.830;9.116;2022-09-24T06:08:30;97437.81;;;20.48;54.27
15489;BME280;7846;48.830;9.116;2022-09-24T06:11:00;97434.28;;;20.36;54.61
15489;BME280;7846;48.830;9.116;2022-09-24T06:13:27;97431.44;;;20.61;53.95
15489;BME280;7846;48.830;9.116;2022-09-24T06:15:59;97433.81;;;20.92;53.47
15489;BME280;7846;48.830;9.116;2022-09-24T06:18:24;97429.25;;;20.93;53.38
15489;BME280;7846;48.830;9.116;2022-09-24T06:20:49;97430.31;;;21.03;53.26
15489;BME280;7846;48.830;9.116;2022-09-24T06:23:15;97435.41;;;21.17;52.96
15489;BME280;7846;48.830;9.116;2022-09-24T06:25:40;97438.56;;;21.37;52.52
15489;BME280;7846;48.830;9.116;2022-09-24T06:28:08;97441.44;;;21.47;52.29
15489;BME280;7846;48.830;9.116;2022-09-24T06:30:35;97450.09;;;21.78;51.87
15489;BME280;7846;48.830;9.116;2022-09-24T06:33:12;97453.56;;;21.15;52.64
15489;BME280;7846;48.830;9.116;2022-09-24T06:35:39;97465.91;;;21.16;52.45
15489;BME280;7846;48.830;9.116;2022-09-24T06:38:06;97466.94;;;21.50;51.91
15489;BME280;7846;48.830;9.116;2022-09-24T06:40:32;97463.91;;;21.46;51.96
15489;BME280;7846;48.830;9.116;2022-09-24T06:42:57;97465.53;;;21.59;51.75
15489;BME280;7846;48.830;9.116;2022-09-24T06:45:23;97467.41;;;21.99;51.09
15489;BME280;7846;48.830;9.116;2022-09-24T06:47:53;97465.38;;;21.78;51.56
15489;BME280;7846;48.830;9.116;2022-09-24T06:50:20;97460.16;;;21.99;50.91
15489;BME280;7846;48.830;9.116;2022-09-24T06:52:45;97464.06;;;22.20;50.30
15489;BME280;7846;48.830;9.116;2022-09-24T06:55:12;97472.06;;;22.32;50.19
15489;BME280;7846;48.830;9.116;2022-09-24T06:57:37;97470.59;;;22.13;50.29
15489;BME280;7846;48.830;9.116;2022-09-24T07:00:03;97465.03;;;22.14;50.87
15489;BME280;7846;48.830;9.116;2022-09-24T07:02:29;97467.50;;;22.33;50.04
15489;BME280;7846;48.830;9.116;2022-09-24T07:04:55;97452.78;;;22.35;50.09
15489;BME280;7846;48.830;9.116;2022-09-24T07:07:21;97459.69;;;21.62;51.09
15489;BME280;7846;48.830;9.116;2022-09-24T07:10:00;97462.06;;;22.44;50.35
15489;BME280;7846;48.830;9.116;2022-09-24T07:12:30;97465.56;;;22.62;49.46
15489;BME280;7846;48.830;9.116;2022-09-24T07:14:56;97471.28;;;22.82;49.26
15489;BME280;7846;48.830;9.116;2022-09-24T07:17:27;97477.03;;;22.91;48.93
15489;BME280;7846;48.830;9.116;2022-09-24T07:19:55;97468.25;;;22.62;49.31
15489;BME280;7846;48.830;9.116;2022-09-24T07:22:21;97458.44;;;22.84;48.49
15489;BME280;7846;48.830;9.116;2022-09-24T07:24:48;97470.63;;;22.75;48.71
15489;BME280;7846;48.830;9.116;2022-09-24T07:27:13;97482.66;;;22.89;48.72
15489;BME280;7846;48.830;9.116;2022-09-24T07:29:39;97494.53;;;23.27;47.92
15489;BME280;7846;48.830;9.116;2022-09-24T07:32:04;97499.41;;;23.30;47.82
15489;BME280;7846;48.830;9.116;2022-09-24T07:34:30;97489.66;;;22.74;48.63
15489;BME280;7846;48.830;9.116;2022-09-24T07:36:56;97498.06;;;23.11;48.60
15489;BME280;7846;48.830;9.116;2022-09-24T07:39:22;97496.47;;;23.32;48.51
15489;BME280;7846;48.830;9.116;2022-09-24T07:41:51;97502.25;;;23.40;48.14
15489;BME280;7846;48.830;9.116;2022-09-24T07:44:20;97498.66;;;23.35;48.19
15489;BME280;7846;48.830;9.116;2022-09-24T07:46:48;97506.66;;;23.13;48.36
15489;BME280;7846;48.830;9.116;2022-09-24T07:49:17;97511.72;;;23.26;48.20
15489;BME280;7846;48.830;9.116;2022-09-24T07:51:42;97505.00;;;23.46;47.63
15489;BME280;7846;48.830;9.116;2022-09-24T07:54:08;97510.88;;;23.81;47.22
15489;BME280;7846;48.830;9.116;2022-09-24T07:56:34;97509.63;;;23.89;47.16
15489;BME280;7846;48.830;9.116;2022-09-24T07:59:00;97509.22;;;24.24;47.10
15489;BME280;7846;48.830;9.116;2022-09-24T08:01:26;97508.91;;;24.43;46.50
15489;BME280;7846;48.830;9.116;2022-09-24T08:03:51;97500.94;;;24.31;46.29
15489;BME280;7846;48.830;9.116;2022-09-24T08:06:18;97501.81;;;23.87;46.80
15489;BME280;7846;48.830;9.116;2022-09-24T08:08:44;97500.66;;;23.06;48.00
15489;BME280;7846;48.830;9.116;2022-09-24T08:11:12;97510.09;;;23.25;47.68
15489;BME280;7846;48.830;9.116;2022-09-24T08:13:38;97494.59;;;22.65;48.19
15489;BME280;7846;48.830;9.116;2022-09-24T08:16:04;97506.50;;;22.12;48.96
15489;BME280;7846;48.830;9.116;2022-09-24T08:18:31;97505.19;;;23.78;46.08
15489;BME280;7846;48.830;9.116;2022-09-24T08:20:58;97509.47;;;24.23;43.95
15489;BME280;7846;48.830;9.116;2022-09-24T08:23:27;97515.53;;;23.69;45.21
15489;BME280;7846;48.830;9.116;2022-09-24T08:25:55;97506.81;;;22.73;47.60
15489;BME280;7846;48.830;9.116;2022-09-24T08:28:20;97514.44;;;22.64;47.21
15489;BME280;7846;48.830;9.116;2022-09-24T08:30:49;97512.25;;;23.84;45.07
15489;BME280;7846;48.830;9.116;2022-09-24T08:33:15;97516.19;;;23.37;45.88
15489;BME280;7846;48.830;9.116;2022-09-24T08:35:40;97512.22;;;24.28;45.09
15489;BME280;7846;48.830;9.116;2022-09-24T08:38:08;97507.78;;;24.98;43.53
15489;BME280;7846;48.830;9.116;2022-09-24T08:40:42;97518.88;;;25.44;42.87
15489;BME280;7846;48.830;9.116;2022-09-24T08:43:29;97522.50;;;26.12;41.42
15489;BME280;7846;48.830;9.116;2022-09-24T08:46:12;97524.56;;;26.78;40.98
15489;BME280;7846;48.830;9.116;2022-09-24T08:49:03;97527.53;;;27.27;40.08
15489;BME280;7846;48.830;9.116;2022-09-24T08:51:34;97530.38;;;26.39;39.36
15489;BME280;7846;48.830;9.116;2022-09-24T08:54:12;97530.50;;;26.85;38.58
15489;BME280;7846;48.830;9.116;2022-09-24T08:56:41;97532.63;;;26.68;39.21
15489;BME280;7846;48.830;9.116;2022-09-24T08:59:15;97532.91;;;27.33;39.15
15489;BME280;7846;48.830;9.116;2022-09-24T09:02:09;97521.72;;;25.64;41.71
15489;BME280;7846;48.830;9.116;2022-09-24T09:08:09;97519.94;;;26.99;39.52
15489;BME280;7846;48.830;9.116;2022-09-24T09:10:39;97527.28;;;28.14;37.19
15489;BME280;7846;48.830;9.116;2022-09-24T09:13:19;97534.22;;;28.46;36.74
15489;BME280;7846;48.830;9.116;2022-09-24T09:15:52;97522.84;;;29.17;37.19
15489;BME280;7846;48.830;9.116;2022-09-24T09:18:42;97524.91;;;29.84;36.31
15489;BME280;7846;48.830;9.116;2022-09-24T09:21:15;97529.56;;;28.91;37.15
15489;BME280;7846;48.830;9.116;2022-09-24T09:23:46;97520.44;;;29.45;36.81
15489;BME280;7846;48.830;9.116;2022-09-24T09:26:12;97527.16;;;28.89;36.79
15489;BME280;7846;48.830;9.116;2022-09-24T09:28:37;97529.50;;;28.62;37.43
15489;BME280;7846;48.830;9.116;2022-09-24T09:31:26;97522.22;;;28.57;38.43
15489;BME280;7846;48.830;9.116;2022-09-24T09:34:31;97524.50;;;29.18;37.29
15489;BME280;7846;48.830;9.116;2022-09-24T09:37:12;97521.53;;;27.56;39.36
15489;BME280;7846;48.830;9.116;2022-09-24T09:42:33;97502.66;;;27.10;40.94
15489;BME280;7846;48.830;9.116;2022-09-24T09:48:04;97502.94;;;27.09;41.06
15489;BME280;7846;48.830;9.116;2022-09-24T09:50:49;97508.88;;;27.11;41.27
15489;BME280;7846;48.830;9.116;2022-09-24T09:53:25;97498.56;;;26.41;43.78
15489;BME280;7846;48.830;9.116;2022-09-24T09:55:53;97499.69;;;26.61;43.61
15489;BME280;7846;48.830;9.116;2022-09-24T09:58:27;97500.06;;;26.01;45.59
15489;BME280;7846;48.830;9.116;2022-09-24T10:01:08;97499.28;;;26.11;45.12
15489;BME280;7846;48.830;9.116;2022-09-24T10:03:59;97491.88;;;26.59;45.23
15489;BME280;7846;48.830;9.116;2022-09-24T10:06:33;97488.56;;;26.42;44.75
15489;BME280;7846;48.830;9.116;2022-09-24T10:09:17;97496.59;;;26.21;46.31
15489;BME280;7846;48.830;9.116;2022-09-24T10:11:46;97504.97;;;25.57;48.78
15489;BME280;7846;48.830;9.116;2022-09-24T10:14:13;97501.88;;;23.93;50.54
15489;BME280;7846;48.830;9.116;2022-09-24T10:16:42;97499.72;;;24.17;50.51
15489;BME280;7846;48.830;9.116;2022-09-24T10:19:16;97499.44;;;23.91;53.48
15489;BME280;7846;48.830;9.116;2022-09-24T10:21:43;97502.84;;;24.30;52.56
15489;BME280;7846;48.830;9.116;2022-09-24T10:24:24;97490.44;;;25.21;50.73
15489;BME280;7846;48.830;9.116;2022-09-24T10:26:51;97494.47;;;25.66;49.09
15489;BME280;7846;48.830;9.116;2022-09-24T10:29:21;97502.47;;;25.93;48.86
15489;BME280;7846;48.830;9.116;2022-09-24T10:32:14;97502.84;;;26.32;47.99
15489;BME280;7846;48.830;9.116;2022-09-24T10:34:40;97502.09;;;26.57;47.03
15489;BME280;7846;48.830;9.116;2022-09-24T10:37:13;97508.91;;;26.85;46.68
15489;BME280;7846;48.830;9.116;2022-09-24T10:39:39;97514.56;;;26.94;46.39
15489;BME280;7846;48.830;9.116;2022-09-24T10:42:05;97506.38;;;26.38;47.57
15489;BME280;7846;48.830;9.116;2022-09-24T10:44:35;97509.69;;;26.91;46.90
15489;BME280;7846;48.830;9.116;2022-09-24T10:47:25;97505.63;;;26.83;47.31
15489;BME280;7846;48.830;9.116;2022-09-24T10:50:17;97502.13;;;26.98;47.55
15489;BME280;7846;48.830;9.116;2022-09-24T10:52:56;97512.00;;;27.89;46.01
15489;BME280;7846;48.830;9.116;2022-09-24T10:55:54;97508.59;;;27.33;45.97
15489;BME280;7846;48.830;9.116;2022-09-24T11:03:52;97507.28;;;27.15;44.99
15489;BME280;7846;48.830;9.116;2022-09-24T11:06:42;97510.28;;;28.58;42.08
15489;BME280;7846;48.830;9.116;2022-09-24T11:12:29;97503.47;;;28.16;42.96
15489;BME280;7846;48.830;9.116;2022-09-24T11:18:34;97498.97;;;29.78;41.81
15489;BME280;7846;48.830;9.116;2022-09-24T11:21:25;97500.41;;;30.13;40.74
15489;BME280;7846;48.830;9.116;2022-09-24T11:27:03;97497.81;;;26.87;45.02
15489;BME280;7846;48.830;9.116;2022-09-24T11:30:17;97495.34;;;27.41;43.92
15489;BME280;7846;48.830;9.116;2022-09-24T11:33:08;97494.28;;;26.61;45.62
15489;BME280;7846;48.830;9.116;2022-09-24T11:39:10;97481.59;;;27.07;45.78
15489;BME280;7846;48.830;9.116;2022-09-24T11:42:03;97484.53;;;27.36;44.40
15489;BME280;7846;48.830;9.116;2022-09-24T11:45:00;97481.53;;;27.53;43.28
15489;BME280;7846;48.830;9.116;2022-09-24T11:50:19;97470.94;;;27.62;44.52
15489;BME280;7846;48.830;9.116;2022-09-24T11:53:25;97475.91;;;26.58;45.44
15489;BME280;7846;48.830;9.116;2022-09-24T11:55:58;97478.63;;;26.58;45.52
15489;BME280;7846;48.830;9.116;2022-09-24T11:58:28;97468.63;;;26.78;45.40
15489;BME280;7846;48.830;9.116;2022-09-24T12:01:01;97465.94;;;25.70;47.37
15489;BME280;7846;48.830;9.116;2022-09-24T12:03:45;97463.78;;;25.67;47.35
15489;BME280;7846;48.830;9.116;2022-09-24T12:06:15;97465.06;;;26.27;46.17
15489;BME280;7846;48.830;9.116;2022-09-24T12:08:54;97464.00;;;25.65;47.38
15489;BME280;7846;48.830;9.116;2022-09-24T12:11:40;97464.78;;;26.23;45.98
15489;BME280;7846;48.830;9.116;2022-09-24T12:14:22;97458.59;;;26.33;46.39
15489;BME280;7846;48.830;9.116;2022-09-24T12:16:52;97460.75;;;26.41;46.94
15489;BME280;7846;48.830;9.116;2022-09-24T12:19:24;97460.00;;;26.82;46.57
15489;BME280;7846;48.830;9.116;2022-09-24T12:21:52;97466.72;;;26.59;47.60
15489;BME280;7846;48.830;9.116;2022-09-24T12:24:26;97460.47;;;26.27;48.22
15489;BME280;7846;48.830;9.116;2022-09-24T12:26:55;97466.13;;;26.36;48.27
15489;BME280;7846;48.830;9.116;2022-09-24T12:32:41;97469.63;;;26.31;49.06
15489;BME280;7846;48.830;9.116;2022-09-24T12:35:30;97469.63;;;26.31;49.33
15489;BME280;7846;48.830;9.116;2022-09-24T12:38:34;97462.09;;;26.34;49.75
15489;BME280;7846;48.830;9.116;2022-09-24T12:41:25;97469.66;;;26.37;49.86
15489;BME280;7846;48.830;9.116;2022-09-24T12:46:49;97462.88;;;26.24;50.48
15489;BME280;7846;48.830;9.116;2022-09-24T12:49:29;97461.00;;;26.35;50.42
15489;BME280;7846;48.830;9.116;2022-09-24T12:51:58;97458.88;;;26.47;50.79
15489;BME280;7846;48.830;9.116;2022-09-24T12:54:31;97460.78;;;26.62;50.84
15489;BME280;7846;48.830;9.116;2022-09-24T12:57:23;97462.69;;;26.87;50.18
15489;BME280;7846;48.830;9.116;2022-09-24T12:59:54;97457.81;;;27.04;50.46
15489;BME280;7846;48.830;9.116;2022-09-24T13:02:24;97462.13;;;27.31;50.05
15489;BME280;7846;48.830;9.116;2022-09-24T13:05:13;97462.03;;;27.56;49.17
15489;BME280;7846;48.830;9.116;2022-09-24T13:08:03;97450.84;;;27.88;48.64
15489;BME280;7846;48.830;9.116;2022-09-24T13:11:02;97460.34;;;27.86;48.19
15489;BME280;7846;48.830;9.116;2022-09-24T13:13:35;97450.50;;;28.05;48.10
15489;BME280;7846;48.830;9.116;2022-09-24T13:16:19;97446.97;;;28.05;47.76
15489;BME280;7846;48.830;9.116;2022-09-24T13:18:58;97450.53;;;27.95;47.70
15489;BME280;7846;48.830;9.116;2022-09-24T13:21:25;97438.59;;;28.01;47.63
15489;BME280;7846;48.830;9.116;2022-09-24T13:23:54;97439.81;;;27.74;47.32
15489;BME280;7846;48.830;9.116;2022-09-24T13:26:32;97445.41;;;27.93;46.78
15489;BME280;7846;48.830;9.116;2022-09-24T13:29:21;97445.94;;;27.95;47.78
15489;BME280;7846;48.830;9.116;2022-09-24T13:31:49;97437.53;;;27.97;48.12
15489;BME280;7846;48.830;9.116;2022-09-24T13:34:21;97442.25;;;27.76;47.83
15489;BME280;7846;48.830;9.116;2022-09-24T13:36:59;97444.94;;;27.71;48.13
15489;BME280;7846;48.830;9.116;2022-09-24T13:39:39;97442.25;;;27.81;48.22
15489;BME280;7846;48.830;9.116;2022-09-24T13:45:14;97445.53;;;27.63;49.06
15489;BME280;7846;48.830;9.116;2022-09-24T13:47:55;97449.88;;;28.18;47.78
15489;BME280;7846;48.830;9.116;2022-09-24T13:50:48;97439.34;;;28.56;47.92
15489;BME280;7846;48.830;9.116;2022-09-24T13:53:31;97434.50;;;28.53;47.56
15489;BME280;7846;48.830;9.116;2022-09-24T13:55:59;97431.72;;;28.58;47.05
15489;BME280;7846;48.830;9.116;2022-09-24T13:58:36;97432.41;;;28.40;47.61
15489;BME280;7846;48.830;9.116;2022-09-24T14:01:05;97431.94;;;28.67;46.98
15489;BME280;7846;48.830;9.116;2022-09-24T14:03:35;97433.19;;;28.80;47.01
15489;BME280;7846;48.830;9.116;2022-09-24T14:06:09;97430.31;;;28.95;46.98
15489;BME280;7846;48.830;9.116;2022-09-24T14:08:39;97429.22;;;29.01;46.31
15489;BME280;7846;48.830;9.116;2022-09-24T14:11:13;97422.13;;;29.05;46.46
15489;BME280;7846;48.830;9.116;2022-09-24T14:13:39;97427.25;;;28.78;46.92
15489;BME280;7846;48.830;9.116;2022-09-24T14:16:19;97420.69;;;28.84;46.58
15489;BME280;7846;48.830;9.116;2022-09-24T14:18:45;97425.25;;;28.59;47.09
15489;BME280;7846;48.830;9.116;2022-09-24T14:23:54;97427.63;;;27.82;48.42
15489;BME280;7846;48.830;9.116;2022-09-24T14:26:30;97422.13;;;27.97;47.77
15489;BME280;7846;48.830;9.116;2022-09-24T14:29:03;97420.06;;;27.74;47.50
15489;BME280;7846;48.830;9.116;2022-09-24T14:31:30;97417.13;;;27.60;47.79